Time;durP1;ratioP1;P1;durP2;ratioP2;P2;SDS_P1;SDS_P2;PMS_P1;PMS_P2;Temp;Humidity;BMP_temperature;BMP_pressure;BME280_temperature;BME280_humidity;BME280_pressure;Samples;Min_cycle;Max_cycle;Signal;HPM_P1;HPM_P2
2020/12/27 00:01:03;;;;;;;26.33;18.85;;;;;;;;;;5072679;28;20040;-73
2020/12/27 00:04:07;;;;;;;30.73;20.95;;;;;;;;;;5072588;28;20079;-74
2020/12/27 00:07:14;;;;;;;28.27;16.63;;;;;;;;;;5072526;28;20384;-75
2020/12/27 00:10:18;;;;;;;26.83;18.73;;;;;;;;;;5072188;28;20686;-73
2020/12/27 00:13:22;;;;;;;24.90;18.52;;;;;;;;;;5072331;28;20103;-74
2020/12/27 00:16:26;;;;;;;28.60;19.10;;;;;;;;;;5072955;28;20094;-74
2020/12/27 00:19:31;;;;;;;32.63;22.27;;;;;;;;;;5072105;28;20043;-74
2020/12/27 00:22:35;;;;;;;36.97;25.63;;;;;;;;;;5072053;28;20381;-74
2020/12/27 00:25:40;;;;;;;38.05;27.00;;;;;;;;;;5071761;28;20052;-74
2020/12/27 00:28:45;;;;;;;38.78;27.50;;;;;;;;;;5071795;28;20071;-73
2020/12/27 00:31:49;;;;;;;34.05;25.38;;;;;;;;;;5071612;28;20039;-75
2020/12/27 00:34:54;;;;;;;35.58;26.15;;;;;;;;;;5071340;28;20648;-75
2020/12/27 00:37:58;;;;;;;37.45;26.73;;;;;;;;;;5071659;28;20400;-74
2020/12/27 00:41:03;;;;;;;40.78;28.17;;;;;;;;;;5071474;28;20044;-74
2020/12/27 00:44:07;;;;;;;39.33;28.10;;;;;;;;;;5071508;28;20035;-75
2020/12/27 00:47:11;;;;;;;47.38;30.80;;;;;;;;;;5081957;28;20664;-74
2020/12/27 00:50:16;;;;;;;49.80;35.75;;;;;;;;;;5082108;28;20407;-74
2020/12/27 00:53:20;;;;;;;45.88;35.03;;;;;;;;;;5071432;28;20063;-74
2020/12/27 00:56:24;;;;;;;53.92;37.95;;;;;;;;;;5071515;28;20043;-73
2020/12/27 00:59:41;;;;;;;49.13;36.15;;;;;;;;;;5082250;28;20036;-75
2020/12/27 01:02:47;;;;;;;47.92;34.42;;;;;;;;;;5070644;28;20051;-74
2020/12/27 01:06:12;;;;;;;45.00;32.75;;;;;;;;;;5070523;28;20035;-74
2020/12/27 01:09:17;;;;;;;49.47;36.30;;;;;;;;;;5081039;28;20051;-74
2020/12/27 01:12:21;;;;;;;53.88;39.13;;;;;;;;;;5082287;28;20039;-74
2020/12/27 01:15:25;;;;;;;53.63;41.00;;;;;;;;;;5081610;28;20539;-74
2020/12/27 01:18:42;;;;;;;54.22;40.72;;;;;;;;;;5082153;28;20293;-74
2020/12/27 01:21:47;;;;;;;51.53;41.72;;;;;;;;;;5082037;28;20039;-74
2020/12/27 01:24:54;;;;;;;57.35;40.42;;;;;;;;;;5081978;28;20051;-75
2020/12/27 01:27:59;;;;;;;70.35;49.10;;;;;;;;;;5082187;28;20051;-74
2020/12/27 01:31:05;;;;;;;63.10;48.65;;;;;;;;;;5070826;28;20051;-74
2020/12/27 01:34:16;;;;;;;59.22;43.10;;;;;;;;;;5081435;28;20036;-75
2020/12/27 01:37:24;;;;;;;56.92;43.30;;;;;;;;;;5081201;28;20051;-75
2020/12/27 01:40:32;;;;;;;57.15;43.88;;;;;;;;;;5081766;28;20074;-74
2020/12/27 01:43:37;;;;;;;61.63;43.83;;;;;;;;;;5070187;28;20043;-74
2020/12/27 01:46:45;;;;;;;68.28;44.15;;;;;;;;;;5070233;28;20059;-74
2020/12/27 01:49:56;;;;;;;60.45;42.95;;;;;;;;;;5081518;28;20404;-73
2020/12/27 01:53:01;;;;;;;60.92;41.95;;;;;;;;;;5070704;28;20047;-74
2020/12/27 01:56:14;;;;;;;56.38;43.22;;;;;;;;;;5081689;28;20040;-78
2020/12/27 01:59:26;;;;;;;54.63;40.97;;;;;;;;;;5070028;28;20507;-74
2020/12/27 02:02:36;;;;;;;53.83;40.55;;;;;;;;;;5081681;28;20040;-74
2020/12/27 02:05:51;;;;;;;53.97;40.42;;;;;;;;;;5070584;28;20047;-74
2020/12/27 02:08:57;;;;;;;52.20;38.58;;;;;;;;;;5070875;28;20048;-74
2020/12/27 02:12:26;;;;;;;49.53;36.22;;;;;;;;;;5081243;28;20040;-74
2020/12/27 02:15:31;;;;;;;51.17;36.35;;;;;;;;;;5081098;28;20104;-74
2020/12/27 02:18:56;;;;;;;51.45;37.00;;;;;;;;;;5070677;28;20523;-74
2020/12/27 02:22:01;;;;;;;52.92;38.33;;;;;;;;;;5085219;28;20388;-74
2020/12/27 02:25:32;;;;;;;48.85;38.60;;;;;;;;;;5073607;28;20059;-74
2020/12/27 02:28:46;;;;;;;46.65;37.60;;;;;;;;;;5085079;28;20569;-74
2020/12/27 02:31:53;;;;;;;49.38;38.53;;;;;;;;;;5085073;28;20424;-73
2020/12/27 02:34:58;;;;;;;51.53;38.80;;;;;;;;;;5073084;28;20048;-73
2020/12/27 02:38:02;;;;;;;52.60;40.53;;;;;;;;;;5085084;28;20059;-73
2020/12/27 02:41:17;;;;;;;51.92;40.83;;;;;;;;;;5084610;28;20047;-75
2020/12/27 02:48:33;;;;;;;51.38;40.42;;;;;;;;;;5073910;28;20048;-75
2020/12/27 02:51:40;;;;;;;55.65;41.72;;;;;;;;;;5073818;28;20055;-75
2020/12/27 02:54:46;;;;;;;58.45;41.28;;;;;;;;;;5072851;28;20039;-75
2020/12/27 02:57:53;;;;;;;46.28;34.83;;;;;;;;;;5072607;28;20032;-74
2020/12/27 03:00:59;;;;;;;45.78;37.22;;;;;;;;;;5072800;28;20040;-75
2020/12/27 03:04:04;;;;;;;36.13;27.70;;;;;;;;;;5073684;28;20039;-74
2020/12/27 03:07:18;;;;;;;35.55;28.00;;;;;;;;;;5084048;28;20043;-74
2020/12/27 03:10:45;;;;;;;25.48;19.50;;;;;;;;;;5084079;28;20059;-74
2020/12/27 03:13:50;;;;;;;24.58;18.00;;;;;;;;;;5073583;28;20035;-74
2020/12/27 03:16:54;;;;;;;20.77;14.15;;;;;;;;;;5084098;28;20543;-74
2020/12/27 03:20:28;;;;;;;14.63;10.48;;;;;;;;;;5084199;28;20048;-75
2020/12/27 03:23:47;;;;;;;16.75;12.80;;;;;;;;;;5084018;28;20052;-73
2020/12/27 03:26:58;;;;;;;17.80;12.13;;;;;;;;;;5083719;28;20048;-74
2020/12/27 03:30:03;;;;;;;14.48;11.65;;;;;;;;;;5072959;28;20052;-73
2020/12/27 03:33:13;;;;;;;16.75;11.40;;;;;;;;;;5071283;28;20048;-73
2020/12/27 03:36:29;;;;;;;14.02;9.52;;;;;;;;;;5072068;28;20043;-74
2020/12/27 03:39:41;;;;;;;11.75;8.30;;;;;;;;;;5095303;28;20043;-74
2020/12/27 03:43:18;;;;;;;14.23;10.70;;;;;;;;;;5066229;28;20047;-74
2020/12/27 03:46:23;;;;;;;11.30;8.20;;;;;;;;;;5071519;28;20075;-74
2020/12/27 03:49:50;;;;;;;9.18;6.68;;;;;;;;;;5075238;28;20600;-74
2020/12/27 03:53:04;;;;;;;8.65;6.35;;;;;;;;;;5072667;28;20488;-74
2020/12/27 03:56:27;;;;;;;6.20;4.72;;;;;;;;;;5072286;28;20040;-74
2020/12/27 03:59:44;;;;;;;3.53;2.92;;;;;;;;;;5095065;28;20048;-74
2020/12/27 04:03:06;;;;;;;4.80;2.90;;;;;;;;;;5071494;28;20036;-75
2020/12/27 04:06:15;;;;;;;4.63;3.50;;;;;;;;;;5094716;28;20041;-72
2020/12/27 04:09:23;;;;;;;5.22;3.33;;;;;;;;;;5094641;28;20041;-74
2020/12/27 04:12:28;;;;;;;3.95;3.30;;;;;;;;;;5071432;28;20041;-75
2020/12/27 04:15:32;;;;;;;6.00;3.47;;;;;;;;;;5094685;28;20033;-75
2020/12/27 04:18:56;;;;;;;4.45;3.50;;;;;;;;;;5094621;28;20036;-73
2020/12/27 04:22:12;;;;;;;3.58;2.72;;;;;;;;;;5072107;28;20040;-74
2020/12/27 04:25:36;;;;;;;3.30;2.38;;;;;;;;;;5070779;28;20040;-73
2020/12/27 04:28:40;;;;;;;3.15;2.10;;;;;;;;;;5094324;28;20028;-74
2020/12/27 04:31:45;;;;;;;2.65;2.00;;;;;;;;;;5094522;28;20052;-73
2020/12/27 04:35:03;;;;;;;4.60;2.30;;;;;;;;;;5070844;28;20041;-75
2020/12/27 04:38:11;;;;;;;3.58;2.50;;;;;;;;;;5071012;28;20037;-74
2020/12/27 04:41:20;;;;;;;2.40;1.90;;;;;;;;;;5059054;28;20036;-74
2020/12/27 04:44:28;;;;;;;1.88;1.30;;;;;;;;;;5093565;28;20472;-74
2020/12/27 04:47:37;;;;;;;1.60;0.80;;;;;;;;;;5093741;28;20492;-74
2020/12/27 04:51:03;;;;;;;1.40;0.85;;;;;;;;;;5093711;28;20409;-73
2020/12/27 04:54:10;;;;;;;;;;;;;;;;;;5071098;28;20032;-73
2020/12/27 04:57:26;;;;;;;1.27;0.90;;;;;;;;;;5083265;28;19915;-73
2020/12/27 05:00:31;;;;;;;1.10;0.80;;;;;;;;;;5071259;28;20028;-74
2020/12/27 05:04:04;;;;;;;1.08;0.90;;;;;;;;;;5071973;28;20032;-73
2020/12/27 05:07:20;;;;;;;1.33;0.90;;;;;;;;;;5071138;28;20048;-73
2020/12/27 05:11:06;;;;;;;4.20;0.90;;;;;;;;;;5071963;28;20040;-74
2020/12/27 05:14:10;;;;;;;1.52;0.70;;;;;;;;;;5059568;28;20037;-73
2020/12/27 05:17:21;;;;;;;1.77;1.15;;;;;;;;;;5094460;28;20036;-73
2020/12/27 05:20:34;;;;;;;1.80;1.02;;;;;;;;;;5094395;28;20036;-73
2020/12/27 05:23:39;;;;;;;2.28;1.20;;;;;;;;;;5094254;28;20040;-74
2020/12/27 05:26:54;;;;;;;1.55;1.10;;;;;;;;;;5071965;28;20036;-73
2020/12/27 05:30:26;;;;;;;1.48;0.90;;;;;;;;;;5094011;28;20045;-74
2020/12/27 05:33:48;;;;;;;1.38;1.00;;;;;;;;;;5071223;28;20480;-74
2020/12/27 05:37:16;;;;;;;1.20;1.08;;;;;;;;;;5071515;28;20036;-74
2020/12/27 05:40:40;;;;;;;3.97;1.40;;;;;;;;;;5071359;28;20044;-74
2020/12/27 05:43:58;;;;;;;2.25;0.90;;;;;;;;;;5093943;28;20048;-74
2020/12/27 05:47:03;;;;;;;0.88;0.70;;;;;;;;;;5070617;28;20040;-74
2020/12/27 05:50:14;;;;;;;0.75;0.70;;;;;;;;;;5093960;28;20037;-74
2020/12/27 05:53:23;;;;;;;2.53;0.88;;;;;;;;;;5070608;28;20045;-74
2020/12/27 05:56:39;;;;;;;1.42;0.88;;;;;;;;;;5097816;28;20032;-74
2020/12/27 05:59:47;;;;;;;1.02;0.63;;;;;;;;;;5074681;28;20029;-74
2020/12/27 06:03:17;;;;;;;0.98;0.70;;;;;;;;;;5075187;28;20041;-73
2020/12/27 06:06:40;;;;;;;0.65;0.60;;;;;;;;;;5098283;28;20044;-72
2020/12/27 06:10:01;;;;;;;1.52;0.90;;;;;;;;;;5074194;28;20044;-73
2020/12/27 06:13:10;;;;;;;0.50;0.50;;;;;;;;;;5074428;28;20044;-74
2020/12/27 06:16:19;;;;;;;1.13;0.70;;;;;;;;;;5086275;28;20028;-73
2020/12/27 06:19:59;;;;;;;1.10;0.98;;;;;;;;;;5074279;28;20032;-74
2020/12/27 06:23:10;;;;;;;2.50;2.10;;;;;;;;;;5097934;28;20048;-74
2020/12/27 06:26:25;;;;;;;1.70;1.50;;;;;;;;;;5064451;28;20044;-76
2020/12/27 06:29:52;;;;;;;0.60;0.60;;;;;;;;;;5075669;28;20048;-75
2020/12/27 06:33:02;;;;;;;0.98;0.88;;;;;;;;;;5074213;28;20033;-74
2020/12/27 06:36:27;;;;;;;1.67;1.10;;;;;;;;;;5073584;28;20032;-75
2020/12/27 06:39:35;;;;;;;1.20;0.80;;;;;;;;;;5097445;28;20029;-73
2020/12/27 06:42:47;;;;;;;;;;;;;;;;;;5075768;28;20032;-73
2020/12/27 06:46:17;;;;;;;1.73;1.20;;;;;;;;;;5074682;28;19924;-73
2020/12/27 06:49:26;;;;;;;1.45;1.10;;;;;;;;;;5074414;28;20041;-74
2020/12/27 06:52:49;;;;;;;1.52;0.98;;;;;;;;;;5098590;28;20484;-75
2020/12/27 06:56:16;;;;;;;0.65;0.60;;;;;;;;;;5074895;28;20033;-74
2020/12/27 06:59:39;;;;;;;0.63;0.60;;;;;;;;;;5075017;28;20044;-74
2020/12/27 07:02:48;;;;;;;1.25;0.70;;;;;;;;;;5074871;28;20468;-74
2020/12/27 07:05:52;;;;;;;2.40;1.20;;;;;;;;;;5075704;28;20483;-74
2020/12/27 07:09:01;;;;;;;1.63;1.30;;;;;;;;;;5097791;28;20163;-73
2020/12/27 07:12:07;;;;;;;5.15;1.10;;;;;;;;;;5086387;28;20048;-74
2020/12/27 07:15:11;;;;;;;3.58;1.88;;;;;;;;;;5074581;28;20036;-75
2020/12/27 07:18:22;;;;;;;2.20;1.40;;;;;;;;;;5074576;28;20040;-75
2020/12/27 07:21:27;;;;;;;1.60;1.20;;;;;;;;;;5073772;28;20033;-76
2020/12/27 07:24:33;;;;;;;1.40;1.00;;;;;;;;;;5074082;28;20476;-74
2020/12/27 07:27:39;;;;;;;2.03;1.52;;;;;;;;;;5075559;28;20036;-75
2020/12/27 07:30:44;;;;;;;1.80;1.30;;;;;;;;;;5072828;28;20044;-73
2020/12/27 07:33:48;;;;;;;3.80;2.30;;;;;;;;;;5096294;28;20033;-74
2020/12/27 07:37:05;;;;;;;6.95;4.85;;;;;;;;;;5075352;28;20032;-73
2020/12/27 07:40:11;;;;;;;11.90;3.50;;;;;;;;;;5097420;28;20036;-75
2020/12/27 07:43:15;;;;;;;5.57;2.55;;;;;;;;;;5073949;28;20374;-75
2020/12/27 07:46:24;;;;;;;4.72;3.05;;;;;;;;;;5073824;28;20045;-74
2020/12/27 07:49:28;;;;;;;4.80;3.25;;;;;;;;;;5074890;28;20226;-75
2020/12/27 07:52:51;;;;;;;4.28;3.30;;;;;;;;;;5074309;28;20044;-73
2020/12/27 07:55:57;;;;;;;4.25;3.20;;;;;;;;;;5074568;28;20370;-74
2020/12/27 07:59:04;;;;;;;3.17;2.80;;;;;;;;;;5074257;28;20037;-74
2020/12/27 08:02:08;;;;;;;4.47;3.03;;;;;;;;;;5075106;28;20040;-74
2020/12/27 08:05:12;;;;;;;5.93;3.58;;;;;;;;;;5075063;28;20041;-73
2020/12/27 08:08:23;;;;;;;5.18;3.10;;;;;;;;;;5074244;28;20036;-74
2020/12/27 08:11:27;;;;;;;58.25;34.25;;;;;;;;;;5073717;28;20036;-74
2020/12/27 08:14:32;;;;;;;24.25;14.75;;;;;;;;;;5071310;28;20428;-75
2020/12/27 08:17:36;;;;;;;6.95;5.28;;;;;;;;;;5072875;28;20063;-74
2020/12/27 08:20:48;;;;;;;7.22;4.10;;;;;;;;;;5073929;28;20036;-75
2020/12/27 08:23:59;;;;;;;9.65;6.22;;;;;;;;;;5074484;28;20040;-73
2020/12/27 08:27:07;;;;;;;8.53;5.40;;;;;;;;;;5074016;28;20044;-74
2020/12/27 08:30:12;;;;;;;7.70;5.28;;;;;;;;;;5073689;28;20290;-74
2020/12/27 08:33:19;;;;;;;8.13;5.25;;;;;;;;;;5072350;28;20488;-74
2020/12/27 08:36:23;;;;;;;6.93;5.25;;;;;;;;;;5072302;28;20032;-74
2020/12/27 08:39:33;;;;;;;7.85;5.80;;;;;;;;;;5072303;28;20040;-75
2020/12/27 08:42:42;;;;;;;9.13;6.60;;;;;;;;;;5072937;28;20469;-74
2020/12/27 08:45:50;;;;;;;12.48;8.10;;;;;;;;;;5071469;28;20052;-76
2020/12/27 08:49:01;;;;;;;11.27;7.32;;;;;;;;;;5072676;28;20096;-74
2020/12/27 08:52:10;;;;;;;11.68;6.45;;;;;;;;;;5073054;28;20061;-79
2020/12/27 08:55:14;;;;;;;8.90;6.90;;;;;;;;;;5073857;28;20057;-79
2020/12/27 08:58:19;;;;;;;9.40;7.03;;;;;;;;;;5073533;28;20044;-80
2020/12/27 09:01:25;;;;;;;9.05;6.97;;;;;;;;;;5072559;28;20040;-78
2020/12/27 09:04:31;;;;;;;13.02;8.68;;;;;;;;;;5075664;28;20044;-82
2020/12/27 09:07:40;;;;;;;6.50;4.63;;;;;;;;;;5075489;28;20036;-81
2020/12/27 09:10:44;;;;;;;7.10;4.22;;;;;;;;;;5073691;28;20052;-79
2020/12/27 09:13:50;;;;;;;6.22;4.53;;;;;;;;;;5073685;28;20044;-79
2020/12/27 09:16:55;;;;;;;6.90;4.50;;;;;;;;;;5075055;28;20053;-80
2020/12/27 09:19:59;;;;;;;5.88;3.90;;;;;;;;;;5074909;28;20040;-79
2020/12/27 09:23:17;;;;;;;7.78;5.97;;;;;;;;;;5073572;28;20037;-79
2020/12/27 09:26:25;;;;;;;6.28;5.10;;;;;;;;;;5074350;28;20041;-80
2020/12/27 09:29:29;;;;;;;6.85;5.15;;;;;;;;;;5074054;28;20045;-79
2020/12/27 09:32:35;;;;;;;8.27;5.32;;;;;;;;;;5078835;28;20056;-78
2020/12/27 09:35:40;;;;;;;7.72;4.68;;;;;;;;;;5076182;28;20366;-79
2020/12/27 09:38:45;;;;;;;11.20;5.43;;;;;;;;;;5077955;28;20045;-81
2020/12/27 09:41:49;;;;;;;11.57;6.47;;;;;;;;;;5077573;28;20033;-80
2020/12/27 09:44:55;;;;;;;7.57;4.93;;;;;;;;;;5077259;28;20397;-80
2020/12/27 09:48:03;;;;;;;7.55;4.10;;;;;;;;;;5078222;28;20049;-80
2020/12/27 09:51:14;;;;;;;5.70;4.28;;;;;;;;;;5077284;28;20496;-79
2020/12/27 09:54:19;;;;;;;10.60;7.78;;;;;;;;;;5077247;28;20041;-79
2020/12/27 09:57:27;;;;;;;18.45;11.85;;;;;;;;;;5076087;28;20040;-79
2020/12/27 10:00:31;;;;;;;18.08;11.23;;;;;;;;;;5076379;28;20055;-79
2020/12/27 10:03:35;;;;;;;16.27;8.45;;;;;;;;;;5076392;28;20051;-78
2020/12/27 10:06:40;;;;;;;8.68;5.43;;;;;;;;;;5077926;28;20036;-80
2020/12/27 10:09:44;;;;;;;6.88;3.83;;;;;;;;;;5078482;28;20040;-80
2020/12/27 10:12:51;;;;;;;8.38;4.15;;;;;;;;;;5077458;28;20492;-80
2020/12/27 10:15:55;;;;;;;7.85;3.85;;;;;;;;;;5076683;28;20032;-79
2020/12/27 10:18:59;;;;;;;8.77;3.72;;;;;;;;;;5078445;28;20040;-80
2020/12/27 10:22:04;;;;;;;7.30;3.65;;;;;;;;;;5077344;28;20488;-79
2020/12/27 10:25:09;;;;;;;4.10;2.95;;;;;;;;;;5077673;28;20036;-78
2020/12/27 10:28:14;;;;;;;8.85;3.20;;;;;;;;;;5078012;28;20036;-78
2020/12/27 10:31:20;;;;;;;4.75;3.35;;;;;;;;;;5077821;28;20044;-81
2020/12/27 10:34:24;;;;;;;4.03;2.92;;;;;;;;;;5076768;28;20041;-78
2020/12/27 10:37:29;;;;;;;5.15;4.03;;;;;;;;;;5076654;28;20041;-79
2020/12/27 10:40:38;;;;;;;11.63;5.00;;;;;;;;;;5076518;28;20044;-79
2020/12/27 10:43:49;;;;;;;9.90;6.22;;;;;;;;;;5079747;28;20033;-80
2020/12/27 10:46:55;;;;;;;12.80;9.20;;;;;;;;;;5078535;28;20045;-80
2020/12/27 10:49:59;;;;;;;9.85;6.38;;;;;;;;;;5077656;28;20056;-78
2020/12/27 10:53:04;;;;;;;5.97;3.75;;;;;;;;;;5076793;28;20040;-78
2020/12/27 10:56:08;;;;;;;10.43;5.32;;;;;;;;;;5076043;28;20044;-79
2020/12/27 10:59:14;;;;;;;7.47;5.43;;;;;;;;;;5076592;28;20032;-77
2020/12/27 11:02:19;;;;;;;8.35;4.43;;;;;;;;;;5075175;28;20044;-80
2020/12/27 11:05:24;;;;;;;18.90;5.95;;;;;;;;;;5074777;28;20032;-80
2020/12/27 11:08:30;;;;;;;9.55;4.85;;;;;;;;;;5075531;28;20051;-79
2020/12/27 11:11:36;;;;;;;7.47;5.28;;;;;;;;;;5074937;28;20057;-79
2020/12/27 11:14:40;;;;;;;11.13;5.53;;;;;;;;;;5075301;28;20032;-80
2020/12/27 11:17:44;;;;;;;9.77;4.40;;;;;;;;;;5076173;28;20055;-78
2020/12/27 11:20:48;;;;;;;9.90;4.80;;;;;;;;;;5097902;28;20037;-80
2020/12/27 11:23:53;;;;;;;6.95;4.18;;;;;;;;;;5061323;28;20036;-81
2020/12/27 11:26:57;;;;;;;10.43;5.82;;;;;;;;;;5073742;28;20048;-81
2020/12/27 11:30:02;;;;;;;8.57;5.15;;;;;;;;;;5073610;28;20032;-81
2020/12/27 11:33:06;;;;;;;7.80;4.40;;;;;;;;;;5073350;28;20052;-80
2020/12/27 11:36:15;;;;;;;8.90;4.85;;;;;;;;;;5073521;28;20032;-80
2020/12/27 11:39:20;;;;;;;9.93;4.95;;;;;;;;;;5073123;28;20041;-80
2020/12/27 11:42:25;;;;;;;10.10;4.50;;;;;;;;;;5072988;28;20070;-80
2020/12/27 11:45:29;;;;;;;5.90;4.45;;;;;;;;;;5073151;28;20032;-79
2020/12/27 11:48:34;;;;;;;9.02;5.22;;;;;;;;;;5073042;28;20484;-80
2020/12/27 11:51:38;;;;;;;10.30;5.68;;;;;;;;;;5072848;28;20044;-81
2020/12/27 11:54:42;;;;;;;11.25;6.57;;;;;;;;;;5072102;28;20043;-81
2020/12/27 11:57:48;;;;;;;12.98;7.72;;;;;;;;;;5073081;28;20047;-79
2020/12/27 12:00:52;;;;;;;12.30;8.40;;;;;;;;;;5095132;28;20037;-80
2020/12/27 12:03:57;;;;;;;15.43;8.60;;;;;;;;;;5072489;28;20504;-79
2020/12/27 12:07:01;;;;;;;11.95;9.23;;;;;;;;;;5072642;28;20048;-81
2020/12/27 12:10:06;;;;;;;15.40;8.68;;;;;;;;;;5072499;28;20051;-80
2020/12/27 12:13:10;;;;;;;14.65;9.23;;;;;;;;;;5072436;28;20059;-80
2020/12/27 12:16:18;;;;;;;20.40;12.48;;;;;;;;;;5072169;28;20042;-79
2020/12/27 12:19:23;;;;;;;18.40;12.70;;;;;;;;;;5072684;28;20420;-81
2020/12/27 12:22:27;;;;;;;20.40;12.35;;;;;;;;;;5072840;28;20523;-80
2020/12/27 12:25:32;;;;;;;17.02;12.25;;;;;;;;;;5073108;28;20069;-81
2020/12/27 12:28:37;;;;;;;18.67;13.57;;;;;;;;;;5072646;28;20047;-80
2020/12/27 12:31:41;;;;;;;24.83;15.18;;;;;;;;;;5071174;28;20056;-80
2020/12/27 12:34:45;;;;;;;25.77;15.93;;;;;;;;;;5072045;28;20044;-80
2020/12/27 12:37:49;;;;;;;31.10;19.30;;;;;;;;;;5072477;28;20047;-81
2020/12/27 12:40:54;;;;;;;26.90;16.42;;;;;;;;;;5072157;28;20059;-80
2020/12/27 12:44:01;;;;;;;21.95;14.55;;;;;;;;;;5072082;28;20213;-80
2020/12/27 12:47:07;;;;;;;15.93;11.70;;;;;;;;;;5071961;28;20432;-80
2020/12/27 12:50:11;;;;;;;22.05;13.52;;;;;;;;;;5071950;28;20067;-79
2020/12/27 12:53:16;;;;;;;23.63;15.45;;;;;;;;;;5071978;28;20054;-79
2020/12/27 12:56:21;;;;;;;20.67;15.45;;;;;;;;;;5071703;28;20050;-80
2020/12/27 12:59:25;;;;;;;21.80;15.48;;;;;;;;;;5071574;28;20055;-81
2020/12/27 13:02:29;;;;;;;19.17;13.85;;;;;;;;;;5071902;28;20231;-81
2020/12/27 13:05:34;;;;;;;17.92;12.00;;;;;;;;;;5071497;28;20624;-79
2020/12/27 13:08:38;;;;;;;13.73;10.45;;;;;;;;;;5071685;28;20332;-79
2020/12/27 13:11:42;;;;;;;17.00;10.88;;;;;;;;;;5071458;28;20512;-81
2020/12/27 13:14:46;;;;;;;61.35;37.47;;;;;;;;;;5071653;28;20039;-80
2020/12/27 13:17:51;;;;;;;20.88;13.52;;;;;;;;;;5071655;28;20674;-79
2020/12/27 13:20:55;;;;;;;19.33;13.95;;;;;;;;;;5071643;28;20047;-79
2020/12/27 13:23:59;;;;;;;23.23;15.45;;;;;;;;;;5073243;28;20099;-80
2020/12/27 13:27:03;;;;;;;19.30;12.55;;;;;;;;;;5071260;28;20040;-80
2020/12/27 13:30:09;;;;;;;16.50;10.95;;;;;;;;;;5071074;28;20060;-79
2020/12/27 13:33:13;;;;;;;17.33;11.95;;;;;;;;;;5071261;28;20063;-80
2020/12/27 13:36:17;;;;;;;17.45;10.07;;;;;;;;;;5070971;28;20064;-80
2020/12/27 13:39:22;;;;;;;29.50;17.10;;;;;;;;;;5071159;28;20040;-79
2020/12/27 13:42:26;;;;;;;14.10;8.77;;;;;;;;;;5071181;28;20043;-79
2020/12/27 13:45:30;;;;;;;12.70;8.43;;;;;;;;;;5071149;28;20045;-79
2020/12/27 13:48:35;;;;;;;12.25;8.88;;;;;;;;;;5071110;28;20036;-79
2020/12/27 13:51:39;;;;;;;11.60;8.52;;;;;;;;;;5070719;28;20092;-79
2020/12/27 13:54:44;;;;;;;12.13;9.40;;;;;;;;;;5071024;28;20503;-80
2020/12/27 13:57:48;;;;;;;11.32;8.75;;;;;;;;;;5071045;28;20052;-79
2020/12/27 14:00:52;;;;;;;12.38;9.00;;;;;;;;;;5070686;28;20044;-78
2020/12/27 14:03:56;;;;;;;13.52;9.50;;;;;;;;;;5071029;28;20373;-80
2020/12/27 14:07:01;;;;;;;17.90;12.30;;;;;;;;;;5071125;28;20036;-79
2020/12/27 14:10:06;;;;;;;14.75;9.70;;;;;;;;;;5070715;28;20416;-79
2020/12/27 14:13:10;;;;;;;11.20;8.77;;;;;;;;;;5070627;28;20047;-79
2020/12/27 14:16:15;;;;;;;11.80;8.13;;;;;;;;;;5072271;28;20045;-81
2020/12/27 14:19:19;;;;;;;11.30;8.18;;;;;;;;;;5074606;28;20037;-80
2020/12/27 14:22:23;;;;;;;12.82;8.75;;;;;;;;;;5074690;28;20036;-79
2020/12/27 14:25:28;;;;;;;14.07;7.28;;;;;;;;;;5074109;28;20035;-81
2020/12/27 14:28:32;;;;;;;9.85;7.78;;;;;;;;;;5073457;28;20049;-79
2020/12/27 14:31:36;;;;;;;9.32;7.00;;;;;;;;;;5074213;28;20049;-79
2020/12/27 14:34:40;;;;;;;11.38;7.72;;;;;;;;;;5074247;28;20476;-79
2020/12/27 14:37:46;;;;;;;9.98;7.75;;;;;;;;;;5073225;28;20040;-80
2020/12/27 14:40:50;;;;;;;9.23;7.53;;;;;;;;;;5073999;28;20469;-80
2020/12/27 14:43:54;;;;;;;14.88;8.45;;;;;;;;;;5074136;28;20044;-79
2020/12/27 14:46:59;;;;;;;12.20;6.85;;;;;;;;;;5073872;28;20041;-80
2020/12/27 14:50:03;;;;;;;10.48;7.60;;;;;;;;;;5074128;28;20036;-79
2020/12/27 14:53:08;;;;;;;13.75;9.15;;;;;;;;;;5074172;28;20051;-80
2020/12/27 14:56:15;;;;;;;15.52;10.93;;;;;;;;;;5073851;28;20468;-80
2020/12/27 14:59:19;;;;;;;25.70;19.40;;;;;;;;;;5073718;28;20040;-80
2020/12/27 15:02:24;;;;;;;27.13;18.52;;;;;;;;;;5073713;28;20043;-80
2020/12/27 15:05:28;;;;;;;29.77;21.75;;;;;;;;;;5073696;28;20048;-79
2020/12/27 15:08:33;;;;;;;32.58;23.75;;;;;;;;;;5073629;28;20055;-81
2020/12/27 15:11:38;;;;;;;28.90;21.10;;;;;;;;;;5075879;28;20039;-80
2020/12/27 15:14:42;;;;;;;27.63;21.05;;;;;;;;;;5075663;28;20047;-80
2020/12/27 15:17:48;;;;;;;36.53;22.75;;;;;;;;;;5077888;28;20040;-80
2020/12/27 15:20:53;;;;;;;85.43;49.00;;;;;;;;;;5076245;28;20499;-80
2020/12/27 15:23:57;;;;;;;69.47;35.92;;;;;;;;;;5074304;28;20408;-82
2020/12/27 15:27:02;;;;;;;48.80;28.40;;;;;;;;;;5073044;28;20067;-80
2020/12/27 15:30:06;;;;;;;45.72;28.92;;;;;;;;;;5075765;28;20047;-80
2020/12/27 15:33:11;;;;;;;40.47;25.15;;;;;;;;;;5073322;28;20052;-79
2020/12/27 15:36:15;;;;;;;33.72;24.90;;;;;;;;;;5073574;28;20039;-81
2020/12/27 15:39:20;;;;;;;34.83;24.23;;;;;;;;;;5074574;28;20040;-79
2020/12/27 15:42:26;;;;;;;37.78;25.30;;;;;;;;;;5076080;28;20043;-80
2020/12/27 15:45:30;;;;;;;37.15;25.27;;;;;;;;;;5076297;28;20048;-83
2020/12/27 15:48:35;;;;;;;35.90;24.17;;;;;;;;;;5076636;28;20043;-81
2020/12/27 15:51:39;;;;;;;36.28;24.98;;;;;;;;;;5076598;28;20067;-80
2020/12/27 15:54:44;;;;;;;34.58;23.55;;;;;;;;;;5075703;28;20035;-79
2020/12/27 15:57:48;;;;;;;43.63;25.90;;;;;;;;;;5073945;28;20511;-74
2020/12/27 16:00:53;;;;;;;38.88;26.30;;;;;;;;;;5072495;28;20048;-76
2020/12/27 16:03:57;;;;;;;36.50;23.77;;;;;;;;;;5083315;28;20043;-75
2020/12/27 16:07:01;;;;;;;113.75;65.18;;;;;;;;;;5072301;28;20495;-76
2020/12/27 16:10:05;;;;;;;40.08;26.00;;;;;;;;;;5072265;28;20047;-75
2020/12/27 16:13:10;;;;;;;38.50;25.95;;;;;;;;;;5071844;28;20523;-74
2020/12/27 16:16:14;;;;;;;36.10;25.58;;;;;;;;;;5071913;28;20039;-74
2020/12/27 16:19:19;;;;;;;41.97;27.55;;;;;;;;;;5072057;28;20043;-74
2020/12/27 16:22:24;;;;;;;36.33;25.65;;;;;;;;;;5071938;28;20039;-74
2020/12/27 16:25:28;;;;;;;42.13;29.08;;;;;;;;;;5071834;28;20047;-74
2020/12/27 16:28:32;;;;;;;46.35;31.85;;;;;;;;;;5071861;28;20380;-74
2020/12/27 16:31:37;;;;;;;47.53;30.02;;;;;;;;;;5071692;28;20056;-73
2020/12/27 16:34:41;;;;;;;41.97;28.85;;;;;;;;;;5071797;28;20048;-74
2020/12/27 16:37:47;;;;;;;43.47;27.88;;;;;;;;;;5071199;28;20048;-74
2020/12/27 16:40:54;;;;;;;45.20;29.08;;;;;;;;;;5071287;28;20035;-74
2020/12/27 16:43:59;;;;;;;37.67;27.63;;;;;;;;;;5071501;28;20540;-74
2020/12/27 16:47:06;;;;;;;45.67;32.15;;;;;;;;;;5071033;28;20052;-74
2020/12/27 16:50:11;;;;;;;44.95;29.70;;;;;;;;;;5071422;28;20040;-75
2020/12/27 16:53:15;;;;;;;38.80;27.42;;;;;;;;;;5071582;28;20056;-74
2020/12/27 16:56:25;;;;;;;39.75;27.77;;;;;;;;;;5071404;28;20043;-74
2020/12/27 16:59:31;;;;;;;39.40;28.05;;;;;;;;;;5071316;28;20047;-73
2020/12/27 17:02:35;;;;;;;40.70;28.08;;;;;;;;;;5071360;28;20044;-74
2020/12/27 17:05:40;;;;;;;42.90;30.30;;;;;;;;;;5070540;28;20051;-74
2020/12/27 17:08:45;;;;;;;41.97;29.65;;;;;;;;;;5071113;28;20043;-75
2020/12/27 17:11:49;;;;;;;55.00;39.20;;;;;;;;;;5071103;28;20071;-75
2020/12/27 17:14:53;;;;;;;49.60;34.33;;;;;;;;;;5071044;28;20040;-74
2020/12/27 17:17:58;;;;;;;42.47;30.40;;;;;;;;;;5071242;28;20047;-74
2020/12/27 17:21:02;;;;;;;39.28;29.50;;;;;;;;;;5071132;28;20040;-74
2020/12/27 17:24:09;;;;;;;42.67;29.83;;;;;;;;;;5070831;28;20044;-74
2020/12/27 17:27:12;;;;;;;43.20;32.00;;;;;;;;;;5071436;28;20515;-76
2020/12/27 17:30:17;;;;;;;46.50;34.03;;;;;;;;;;5071070;28;20067;-74
2020/12/27 17:33:22;;;;;;;49.38;32.10;;;;;;;;;;5071090;28;20051;-74
2020/12/27 17:36:27;;;;;;;40.90;30.67;;;;;;;;;;5071299;28;20044;-73
2020/12/27 17:39:32;;;;;;;36.20;24.98;;;;;;;;;;5070158;28;20047;-73
2020/12/27 17:42:36;;;;;;;41.75;28.58;;;;;;;;;;5071161;28;20043;-75
2020/12/27 17:45:41;;;;;;;33.25;24.10;;;;;;;;;;5070755;28;20051;-75
2020/12/27 17:48:45;;;;;;;32.80;24.98;;;;;;;;;;5070855;28;20044;-75
2020/12/27 17:51:50;;;;;;;40.70;26.83;;;;;;;;;;5073085;28;20048;-76
2020/12/27 17:54:54;;;;;;;39.45;28.35;;;;;;;;;;5073382;28;20043;-74
2020/12/27 17:57:59;;;;;;;43.85;27.90;;;;;;;;;;5074760;28;20036;-73
2020/12/27 18:01:03;;;;;;;59.08;35.05;;;;;;;;;;5074676;28;20048;-74
2020/12/27 18:04:07;;;;;;;45.08;29.00;;;;;;;;;;5074715;28;20099;-73
2020/12/27 18:07:12;;;;;;;37.50;26.67;;;;;;;;;;5073927;28;20055;-75
2020/12/27 18:10:16;;;;;;;35.65;25.60;;;;;;;;;;5074826;28;20479;-75
2020/12/27 18:13:22;;;;;;;33.78;23.52;;;;;;;;;;5074062;28;20515;-75
2020/12/27 18:16:26;;;;;;;36.08;25.25;;;;;;;;;;5074107;28;20040;-76
2020/12/27 18:19:30;;;;;;;33.85;24.15;;;;;;;;;;5084994;28;20057;-75
2020/12/27 18:22:35;;;;;;;38.90;27.23;;;;;;;;;;5074123;28;20043;-76
2020/12/27 18:25:39;;;;;;;40.55;31.13;;;;;;;;;;5074177;28;20048;-74
2020/12/27 18:28:45;;;;;;;48.03;31.20;;;;;;;;;;5074063;28;20036;-74
2020/12/27 18:31:49;;;;;;;49.92;31.15;;;;;;;;;;5073184;28;20428;-73